sensor_id;sensor_type;location;lat;lon;timestamp;pressure;altitude;pressure_sealevel;temperature;humidity
13732;BME280;6937;56.096;12.664;2023-02-13T00:00:22;103018.16;;;7.04;100.00
13732;BME280;6937;56.096;12.664;2023-02-13T00:02:47;103028.81;;;7.03;100.00
13732;BME280;6937;56.096;12.664;2023-02-13T00:05:13;103039.44;;;7.03;100.00
13732;BME280;6937;56.096;12.664;2023-02-13T00:07:38;103031.53;;;7.00;100.00
13732;BME280;6937;56.096;12.664;2023-02-13T00:10:04;103022.75;;;6.96;100.00
13732;BME280;6937;56.096;12.664;2023-02-13T00:12:30;103033.47;;;6.93;100.00
13732;BME280;6937;56.096;12.664;2023-02-13T00:14:55;103031.78;;;6.89;100.00
13732;BME280;6937;56.096;12.664;2023-02-13T00:17:21;103035.34;;;6.88;100.00
13732;BME280;6937;56.096;12.664;2023-02-13T00:19:46;103038.06;;;6.85;100.00
13732;BME280;6937;56.096;12.664;2023-02-13T00:22:12;103031.88;;;6.83;100.00
13732;BME280;6937;56.096;12.664;2023-02-13T00:24:37;103038.22;;;6.77;100.00
13732;BME280;6937;56.096;12.664;2023-02-13T00:27:02;103037.34;;;6.75;100.00
13732;BME280;6937;56.096;12.664;2023-02-13T00:29:28;103044.53;;;6.72;100.00
13732;BME280;6937;56.096;12.664;2023-02-13T00:31:53;103037.50;;;6.69;100.00
13732;BME280;6937;56.096;12.664;2023-02-13T00:34:18;103036.63;;;6.67;100.00
13732;BME280;6937;56.096;12.664;2023-02-13T00:36:44;103033.16;;;6.64;100.00
13732;BME280;6937;56.096;12.664;2023-02-13T00:39:10;103030.63;;;6.59;100.00
13732;BME280;6937;56.096;12.664;2023-02-13T00:41:36;103026.22;;;6.57;100.00
13732;BME280;6937;56.096;12.664;2023-02-13T00:44:01;103025.41;;;6.53;100.00
13732;BME280;6937;56.096;12.664;2023-02-13T00:46:27;103024.63;;;6.48;100.00
13732;BME280;6937;56.096;12.664;2023-02-13T00:48:52;103024.66;;;6.45;100.00
13732;BME280;6937;56.096;12.664;2023-02-13T00:51:17;103018.50;;;6.45;100.00
13732;BME280;6937;56.096;12.664;2023-02-13T00:53:43;103017.66;;;6.41;100.00
13732;BME280;6937;56.096;12.664;2023-02-13T00:56:08;103024.81;;;6.39;100.00
13732;BME280;6937;56.096;12.664;2023-02-13T00:58:34;103023.03;;;6.40;100.00
13732;BME280;6937;56.096;12.664;2023-02-13T01:00:59;103030.13;;;6.38;100.00
13732;BME280;6937;56.096;12.664;2023-02-13T01:03:25;103029.28;;;6.37;100.00
13732;BME280;6937;56.096;12.664;2023-02-13T01:05:51;103011.66;;;6.33;100.00
13732;BME280;6937;56.096;12.664;2023-02-13T01:08:17;103016.97;;;6.33;100.00
13732;BME280;6937;56.096;12.664;2023-02-13T01:10:45;103017.00;;;6.30;100.00
13732;BME280;6937;56.096;12.664;2023-02-13T01:13:11;103017.84;;;6.32;100.00
13732;BME280;6937;56.096;12.664;2023-02-13T01:15:38;103011.66;;;6.31;100.00
13732;BME280;6937;56.096;12.664;2023-02-13T01:18:04;103016.97;;;6.33;100.00
13732;BME280;6937;56.096;12.664;2023-02-13T01:20:30;103010.78;;;6.32;100.00
13732;BME280;6937;56.096;12.664;2023-02-13T01:22:56;103016.03;;;6.36;100.00
13732;BME280;6937;56.096;12.664;2023-02-13T01:25:22;103020.38;;;6.38;100.00
13732;BME280;6937;56.096;12.664;2023-02-13T01:27:47;103013.28;;;6.40;100.00
13732;BME280;6937;56.096;12.664;2023-02-13T01:30:14;103012.19;;;6.49;100.00
13732;BME280;6937;56.096;12.664;2023-02-13T01:32:41;103000.69;;;6.50;100.00
13732;BME280;6937;56.096;12.664;2023-02-13T01:35:08;102996.25;;;6.50;100.00
13732;BME280;6937;56.096;12.664;2023-02-13T01:37:35;103006.84;;;6.52;100.00
13732;BME280;6937;56.096;12.664;2023-02-13T01:40:01;103009.44;;;6.55;100.00
13732;BME280;6937;56.096;12.664;2023-02-13T01:42:29;102994.38;;;6.55;100.00
13732;BME280;6937;56.096;12.664;2023-02-13T01:44:57;103011.22;;;6.54;100.00
13732;BME280;6937;56.096;12.664;2023-02-13T01:47:38;103012.09;;;6.55;100.00
13732;BME280;6937;56.096;12.664;2023-02-13T01:50:12;102999.72;;;6.54;100.00
13732;BME280;6937;56.096;12.664;2023-02-13T01:52:43;102994.38;;;6.55;100.00
13732;BME280;6937;56.096;12.664;2023-02-13T01:55:10;102986.38;;;6.57;100.00
13732;BME280;6937;56.096;12.664;2023-02-13T01:57:38;102981.91;;;6.59;100.00
13732;BME280;6937;56.096;12.664;2023-02-13T02:00:08;102981.06;;;6.57;100.00
13732;BME280;6937;56.096;12.664;2023-02-13T02:02:37;102982.78;;;6.59;100.00
13732;BME280;6937;56.096;12.664;2023-02-13T02:05:05;102974.78;;;6.61;100.00
13732;BME280;6937;56.096;12.664;2023-02-13T02:07:31;102975.66;;;6.60;100.00
13732;BME280;6937;56.096;12.664;2023-02-13T02:10:10;102980.97;;;6.61;100.00
13732;BME280;6937;56.096;12.664;2023-02-13T02:12:43;102980.06;;;6.62;100.00
13732;BME280;6937;56.096;12.664;2023-02-13T02:15:11;102978.38;;;6.58;100.00
13732;BME280;6937;56.096;12.664;2023-02-13T02:17:36;102977.59;;;6.53;100.00
13732;BME280;6937;56.096;12.664;2023-02-13T02:20:18;102979.38;;;6.53;100.00
13732;BME280;6937;56.096;12.664;2023-02-13T02:28:52;102968.88;;;6.47;100.00
13732;BME280;6937;56.096;12.664;2023-02-13T02:44:48;102984.94;;;6.41;100.00
13732;BME280;6937;56.096;12.664;2023-02-13T02:47:37;102974.31;;;6.41;100.00
13732;BME280;6937;56.096;12.664;2023-02-13T02:50:32;102969.09;;;6.36;100.00
13732;BME280;6937;56.096;12.664;2023-02-13T02:53:07;102973.59;;;6.31;100.00
13732;BME280;6937;56.096;12.664;2023-02-13T02:55:57;102970.19;;;6.24;100.00
13732;BME280;6937;56.096;12.664;2023-02-13T03:01:13;102970.34;;;6.17;100.00
13732;BME280;6937;56.096;12.664;2023-02-13T03:03:59;102971.31;;;6.13;100.00
13732;BME280;6937;56.096;12.664;2023-02-13T03:06:56;102965.06;;;6.15;100.00
13732;BME280;6937;56.096;12.664;2023-02-13T03:09:30;102959.78;;;6.14;100.00
13732;BME280;6937;56.096;12.664;2023-02-13T03:12:18;102967.69;;;6.15;100.00
13732;BME280;6937;56.096;12.664;2023-02-13T03:15:03;102961.44;;;6.19;100.00
13732;BME280;6937;56.096;12.664;2023-02-13T03:17:29;102960.53;;;6.22;100.00
13732;BME280;6937;56.096;12.664;2023-02-13T03:20:22;102957.81;;;6.25;100.00
13732;BME280;6937;56.096;12.664;2023-02-13T03:28:56;102962.06;;;6.34;100.00
13732;BME280;6937;56.096;12.664;2023-02-13T03:32:06;102964.75;;;6.30;100.00
13732;BME280;6937;56.096;12.664;2023-02-13T03:34:36;102971.81;;;6.31;100.00
13732;BME280;6937;56.096;12.664;2023-02-13T03:37:28;102967.41;;;6.30;100.00
13732;BME280;6937;56.096;12.664;2023-02-13T03:41:06;102961.28;;;6.27;100.00
13732;BME280;6937;56.096;12.664;2023-02-13T03:46:47;102978.03;;;6.30;100.00
13732;BME280;6937;56.096;12.664;2023-02-13T03:49:23;102968.34;;;6.28;100.00
13732;BME280;6937;56.096;12.664;2023-02-13T03:52:28;102972.78;;;6.27;100.00
13732;BME280;6937;56.096;12.664;2023-02-13T03:54:58;102971.91;;;6.27;100.00
13732;BME280;6937;56.096;12.664;2023-02-13T03:57:44;102970.19;;;6.26;100.00
13732;BME280;6937;56.096;12.664;2023-02-13T04:00:33;102956.91;;;6.24;100.00
13732;BME280;6937;56.096;12.664;2023-02-13T04:05:49;102975.44;;;6.27;100.00
13732;BME280;6937;56.096;12.664;2023-02-13T04:08:16;102979.94;;;6.25;100.00
13732;BME280;6937;56.096;12.664;2023-02-13T04:10:58;102978.16;;;6.24;100.00
13732;BME280;6937;56.096;12.664;2023-02-13T04:13:32;102968.44;;;6.25;100.00
13732;BME280;6937;56.096;12.664;2023-02-13T04:16:09;102984.34;;;6.25;100.00
13732;BME280;6937;56.096;12.664;2023-02-13T04:18:36;102977.28;;;6.25;100.00
13732;BME280;6937;56.096;12.664;2023-02-13T04:21:04;102977.22;;;6.27;100.00
13732;BME280;6937;56.096;12.664;2023-02-13T04:23:30;102980.81;;;6.26;100.00
13732;BME280;6937;56.096;12.664;2023-02-13T04:25:55;102979.00;;;6.26;100.00
13732;BME280;6937;56.096;12.664;2023-02-13T04:28:22;102978.16;;;6.24;100.00
13732;BME280;6937;56.096;12.664;2023-02-13T04:30:48;102979.03;;;6.25;100.00
13732;BME280;6937;56.096;12.664;2023-02-13T04:33:14;102971.97;;;6.24;100.00
13732;BME280;6937;56.096;12.664;2023-02-13T04:35:40;102971.09;;;6.23;100.00
13732;BME280;6937;56.096;12.664;2023-02-13T04:38:05;102968.44;;;6.25;100.00
13732;BME280;6937;56.096;12.664;2023-02-13T04:40:31;102974.63;;;6.25;100.00
13732;BME280;6937;56.096;12.664;2023-02-13T04:42:56;102972.84;;;6.26;100.00
13732;BME280;6937;56.096;12.664;2023-02-13T04:45:21;102957.81;;;6.23;100.00
13732;BME280;6937;56.096;12.664;2023-02-13T04:47:51;102956.03;;;6.25;100.00
13732;BME280;6937;56.096;12.664;2023-02-13T04:50:17;102948.97;;;6.24;100.00
13732;BME280;6937;56.096;12.664;2023-02-13T04:52:43;102941.88;;;6.23;100.00
13732;BME280;6937;56.096;12.664;2023-02-13T04:55:08;102948.94;;;6.26;100.00
13732;BME280;6937;56.096;12.664;2023-02-13T04:57:34;102949.84;;;6.23;100.00
13732;BME280;6937;56.096;12.664;2023-02-13T04:59:59;102947.19;;;6.23;100.00
13732;BME280;6937;56.096;12.664;2023-02-13T05:02:24;102947.19;;;6.23;100.00
13732;BME280;6937;56.096;12.664;2023-02-13T05:04:50;102937.47;;;6.22;100.00
13732;BME280;6937;56.096;12.664;2023-02-13T05:07:15;102938.34;;;6.23;100.00
13732;BME280;6937;56.096;12.664;2023-02-13T05:09:40;102941.88;;;6.25;100.00
13732;BME280;6937;56.096;12.664;2023-02-13T05:12:06;102940.03;;;6.28;100.00
13732;BME280;6937;56.096;12.664;2023-02-13T05:14:31;102933.75;;;6.32;100.00
13732;BME280;6937;56.096;12.664;2023-02-13T05:16:57;102931.94;;;6.35;100.00
13732;BME280;6937;56.096;12.664;2023-02-13T05:19:22;102915.09;;;6.34;100.00
13732;BME280;6937;56.096;12.664;2023-02-13T05:21:47;102923.06;;;6.34;100.00
13732;BME280;6937;56.096;12.664;2023-02-13T05:24:31;102916.00;;;6.35;100.00
13732;BME280;6937;56.096;12.664;2023-02-13T05:26:56;102916.88;;;6.35;100.00
13732;BME280;6937;56.096;12.664;2023-02-13T05:29:22;102914.25;;;6.34;100.00
13732;BME280;6937;56.096;12.664;2023-02-13T05:31:50;102902.75;;;6.33;100.00
13732;BME280;6937;56.096;12.664;2023-02-13T05:34:16;102938.19;;;6.30;100.00
13732;BME280;6937;56.096;12.664;2023-02-13T05:36:41;102924.00;;;6.33;100.00
13732;BME280;6937;56.096;12.664;2023-02-13T05:39:07;102931.03;;;6.34;100.00
13732;BME280;6937;56.096;12.664;2023-02-13T05:41:33;102922.25;;;6.30;100.00
13732;BME280;6937;56.096;12.664;2023-02-13T05:43:58;102925.84;;;6.29;100.00
13732;BME280;6937;56.096;12.664;2023-02-13T05:46:23;102929.31;;;6.33;100.00
13732;BME280;6937;56.096;12.664;2023-02-13T05:48:50;102920.50;;;6.31;100.00
13732;BME280;6937;56.096;12.664;2023-02-13T05:51:15;102920.53;;;6.29;100.00
13732;BME280;6937;56.096;12.664;2023-02-13T05:53:41;102920.63;;;6.25;100.00
13732;BME280;6937;56.096;12.664;2023-02-13T05:56:06;102934.72;;;6.27;100.00
13732;BME280;6937;56.096;12.664;2023-02-13T05:58:32;102927.66;;;6.27;100.00
13732;BME280;6937;56.096;12.664;2023-02-13T06:00:59;102927.69;;;6.26;100.00
13732;BME280;6937;56.096;12.664;2023-02-13T06:03:26;102913.56;;;6.24;100.00
13732;BME280;6937;56.096;12.664;2023-02-13T06:05:52;102921.53;;;6.24;100.00
13732;BME280;6937;56.096;12.664;2023-02-13T06:08:18;102922.47;;;6.20;100.00
13732;BME280;6937;56.096;12.664;2023-02-13T06:10:47;102926.97;;;6.16;100.00
13732;BME280;6937;56.096;12.664;2023-02-13T06:13:13;102932.28;;;6.16;100.00
13732;BME280;6937;56.096;12.664;2023-02-13T06:15:39;102951.78;;;6.15;100.00
13732;BME280;6937;56.096;12.664;2023-02-13T06:18:04;102958.09;;;6.10;100.00
13732;BME280;6937;56.096;12.664;2023-02-13T06:20:30;102969.59;;;6.09;100.00
13732;BME280;6937;56.096;12.664;2023-02-13T06:22:55;102967.00;;;6.06;100.00
13732;BME280;6937;56.096;12.664;2023-02-13T06:25:21;102955.50;;;6.07;100.00
13732;BME280;6937;56.096;12.664;2023-02-13T06:27:46;102957.22;;;6.08;100.00
13732;BME280;6937;56.096;12.664;2023-02-13T06:30:12;102970.50;;;6.08;100.00
13732;BME280;6937;56.096;12.664;2023-02-13T06:32:38;102968.81;;;6.04;100.00
13732;BME280;6937;56.096;12.664;2023-02-13T06:35:04;102973.19;;;6.06;100.00
13732;BME280;6937;56.096;12.664;2023-02-13T06:37:29;102967.03;;;6.04;100.00
13732;BME280;6937;56.096;12.664;2023-02-13T06:39:54;102970.63;;;6.00;100.00
13732;BME280;6937;56.096;12.664;2023-02-13T06:42:20;102971.53;;;6.01;100.00
13732;BME280;6937;56.096;12.664;2023-02-13T06:44:46;102968.84;;;6.02;100.00
13732;BME280;6937;56.096;12.664;2023-02-13T06:47:11;102977.66;;;6.04;100.00
13732;BME280;6937;56.096;12.664;2023-02-13T06:49:36;102985.59;;;6.04;100.00
13732;BME280;6937;56.096;12.664;2023-02-13T06:52:02;102986.50;;;6.05;100.00
13732;BME280;6937;56.096;12.664;2023-02-13T06:54:27;102979.41;;;6.04;100.00
13732;BME280;6937;56.096;12.664;2023-02-13T06:56:53;102984.72;;;6.04;100.00
13732;BME280;6937;56.096;12.664;2023-02-13T06:59:18;102975.88;;;6.05;100.00
13732;BME280;6937;56.096;12.664;2023-02-13T07:01:43;102979.47;;;6.02;100.00
13732;BME280;6937;56.096;12.664;2023-02-13T07:04:09;102983.03;;;6.01;100.00
13732;BME280;6937;56.096;12.664;2023-02-13T07:06:34;102977.72;;;6.01;100.00
13732;BME280;6937;56.096;12.664;2023-02-13T07:09:01;102979.47;;;6.01;100.00
13732;BME280;6937;56.096;12.664;2023-02-13T07:11:27;102984.78;;;6.02;100.00
13732;BME280;6937;56.096;12.664;2023-02-13T07:13:52;102976.81;;;6.02;100.00
13732;BME280;6937;56.096;12.664;2023-02-13T07:16:18;102991.88;;;6.02;100.00
13732;BME280;6937;56.096;12.664;2023-02-13T07:18:43;102983.88;;;6.03;100.00
13732;BME280;6937;56.096;12.664;2023-02-13T07:21:08;102985.59;;;6.04;100.00
13732;BME280;6937;56.096;12.664;2023-02-13T07:23:34;102993.56;;;6.06;100.00
13732;BME280;6937;56.096;12.664;2023-02-13T07:26:00;102979.28;;;6.11;100.00
13732;BME280;6937;56.096;12.664;2023-02-13T07:28:26;102987.25;;;6.11;100.00
13732;BME280;6937;56.096;12.664;2023-02-13T07:30:51;102981.94;;;6.11;100.00
13732;BME280;6937;56.096;12.664;2023-02-13T07:33:17;102991.66;;;6.12;100.00
13732;BME280;6937;56.096;12.664;2023-02-13T07:35:50;102993.38;;;6.15;100.00
13732;BME280;6937;56.096;12.664;2023-02-13T07:38:17;102987.16;;;6.16;100.00
13732;BME280;6937;56.096;12.664;2023-02-13T07:40:43;102988.94;;;6.15;100.00
13732;BME280;6937;56.096;12.664;2023-02-13T07:43:08;103002.13;;;6.20;100.00
13732;BME280;6937;56.096;12.664;2023-02-13T07:45:34;102998.53;;;6.22;100.00
13732;BME280;6937;56.096;12.664;2023-02-13T07:47:59;102991.47;;;6.23;100.00
13732;BME280;6937;56.096;12.664;2023-02-13T07:50:25;102993.22;;;6.22;100.00
13732;BME280;6937;56.096;12.664;2023-02-13T07:52:59;102989.63;;;6.26;100.00
13732;BME280;6937;56.096;12.664;2023-02-13T07:55:26;103002.06;;;6.23;100.00
13732;BME280;6937;56.096;12.664;2023-02-13T07:57:51;102982.59;;;6.24;100.00
13732;BME280;6937;56.096;12.664;2023-02-13T08:00:17;102990.47;;;6.28;100.00
13732;BME280;6937;56.096;12.664;2023-02-13T08:02:44;102984.22;;;6.32;100.00
13732;BME280;6937;56.096;12.664;2023-02-13T08:05:09;102987.69;;;6.35;100.00
13732;BME280;6937;56.096;12.664;2023-02-13T08:07:35;102995.59;;;6.38;100.00
13732;BME280;6937;56.096;12.664;2023-02-13T08:10:01;102993.81;;;6.40;100.00
13732;BME280;6937;56.096;12.664;2023-02-13T08:12:45;102995.56;;;6.41;100.00
13732;BME280;6937;56.096;12.664;2023-02-13T08:15:12;102986.66;;;6.43;100.00
13732;BME280;6937;56.096;12.664;2023-02-13T08:17:38;102995.50;;;6.44;100.00
13732;BME280;6937;56.096;12.664;2023-02-13T08:20:05;102976.84;;;6.47;100.00
13732;BME280;6937;56.096;12.664;2023-02-13T08:22:38;102985.59;;;6.52;100.00
13732;BME280;6937;56.096;12.664;2023-02-13T08:25:05;102981.06;;;6.57;100.00
13732;BME280;6937;56.096;12.664;2023-02-13T08:27:30;102982.78;;;6.59;100.00
13732;BME280;6937;56.096;12.664;2023-02-13T08:29:56;102978.16;;;6.67;100.00
13732;BME280;6937;56.096;12.664;2023-02-13T08:32:23;102970.09;;;6.72;100.00
13732;BME280;6937;56.096;12.664;2023-02-13T08:34:48;102966.47;;;6.77;100.00
13732;BME280;6937;56.096;12.664;2023-02-13T08:37:14;102963.75;;;6.79;100.00
13732;BME280;6937;56.096;12.664;2023-02-13T08:39:39;102952.19;;;6.82;100.00
13732;BME280;6937;56.096;12.664;2023-02-13T08:42:05;102968.06;;;6.85;100.00
13732;BME280;6937;56.096;12.664;2023-02-13T08:44:30;102966.22;;;6.88;100.00
13732;BME280;6937;56.096;12.664;2023-02-13T08:46:56;102956.41;;;6.92;100.00
13732;BME280;6937;56.096;12.664;2023-02-13T08:49:21;102966.06;;;6.94;100.00
13732;BME280;6937;56.096;12.664;2023-02-13T08:51:48;102971.38;;;6.96;100.00
13732;BME280;6937;56.096;12.664;2023-02-13T08:54:13;102977.47;;;7.01;100.00
13732;BME280;6937;56.096;12.664;2023-02-13T08:56:38;102977.47;;;7.01;100.00
13732;BME280;6937;56.096;12.664;2023-02-13T08:59:04;102967.66;;;7.03;100.00
13732;BME280;6937;56.096;12.664;2023-02-13T09:01:29;102971.03;;;7.11;100.00
13732;BME280;6937;56.096;12.664;2023-02-13T09:03:55;102964.72;;;7.15;100.00
13732;BME280;6937;56.096;12.664;2023-02-13T09:06:20;102962.81;;;7.20;100.00
13732;BME280;6937;56.096;12.664;2023-02-13T09:08:45;102980.47;;;7.24;100.00
13732;BME280;6937;56.096;12.664;2023-02-13T09:11:11;102966.25;;;7.25;100.00
13732;BME280;6937;56.096;12.664;2023-02-13T09:13:36;102959.09;;;7.28;100.00
13732;BME280;6937;56.096;12.664;2023-02-13T09:16:06;102959.78;;;7.37;100.00
13732;BME280;6937;56.096;12.664;2023-02-13T09:18:32;102949.16;;;7.35;100.00
13732;BME280;6937;56.096;12.664;2023-02-13T09:21:03;102950.91;;;7.38;100.00
13732;BME280;6937;56.096;12.664;2023-02-13T09:23:30;102948.25;;;7.36;100.00
13732;BME280;6937;56.096;12.664;2023-02-13T09:26:00;102953.44;;;7.42;100.00
13732;BME280;6937;56.096;12.664;2023-02-13T09:28:27;102966.75;;;7.42;100.00
13732;BME280;6937;56.096;12.664;2023-02-13T09:30:52;102974.75;;;7.41;100.00
13732;BME280;6937;56.096;12.664;2023-02-13T09:33:17;102993.31;;;7.44;100.00
13732;BME280;6937;56.096;12.664;2023-02-13T09:35:43;102995.94;;;7.45;100.00
13732;BME280;6937;56.096;12.664;2023-02-13T09:38:08;102994.09;;;7.49;100.00
13732;BME280;6937;56.096;12.664;2023-02-13T09:40:36;102979.03;;;7.48;100.00
13732;BME280;6937;56.096;12.664;2023-02-13T09:43:34;102994.09;;;7.49;100.00
13732;BME280;6937;56.096;12.664;2023-02-13T09:46:12;102984.31;;;7.49;100.00
13732;BME280;6937;56.096;12.664;2023-02-13T09:48:40;102994.78;;;7.57;100.00
13732;BME280;6937;56.096;12.664;2023-02-13T09:51:13;102996.44;;;7.61;100.00
13732;BME280;6937;56.096;12.664;2023-02-13T09:53:40;103007.13;;;7.59;100.00
13732;BME280;6937;56.096;12.664;2023-02-13T09:56:14;103018.66;;;7.58;100.00
13732;BME280;6937;56.096;12.664;2023-02-13T09:58:46;103020.44;;;7.59;100.00
13732;BME280;6937;56.096;12.664;2023-02-13T10:01:37;103018.72;;;7.57;100.00
13732;BME280;6937;56.096;12.664;2023-02-13T10:06:46;103008.09;;;7.57;100.00
13732;BME280;6937;56.096;12.664;2023-02-13T10:17:25;103023.91;;;7.61;100.00
13732;BME280;6937;56.096;12.664;2023-02-13T10:19:57;103027.47;;;7.62;100.00
13732;BME280;6937;56.096;12.664;2023-02-13T10:22:33;103037.31;;;7.58;100.00
13732;BME280;6937;56.096;12.664;2023-02-13T10:25:03;103028.50;;;7.56;100.00
13732;BME280;6937;56.096;12.664;2023-02-13T10:27:35;103023.19;;;7.55;100.00
13732;BME280;6937;56.096;12.664;2023-02-13T10:30:31;103019.72;;;7.53;100.00
13732;BME280;6937;56.096;12.664;2023-02-13T10:33:19;103025.06;;;7.51;100.00
13732;BME280;6937;56.096;12.664;2023-02-13T10:38:23;103023.28;;;7.52;100.00
13732;BME280;6937;56.096;12.664;2023-02-13T10:46:21;103021.34;;;7.58;100.00
13732;BME280;6937;56.096;12.664;2023-02-13T10:49:46;103035.69;;;7.53;100.00
13732;BME280;6937;56.096;12.664;2023-02-13T10:52:23;103027.63;;;7.54;100.00
13732;BME280;6937;56.096;12.664;2023-02-13T10:55:01;103027.63;;;7.54;100.00
13732;BME280;6937;56.096;12.664;2023-02-13T11:00:24;103028.22;;;7.67;100.00
13732;BME280;6937;56.096;12.664;2023-02-13T11:02:54;103031.78;;;7.67;100.00
13732;BME280;6937;56.096;12.664;2023-02-13T11:05:23;103012.97;;;7.73;100.00
13732;BME280;6937;56.096;12.664;2023-02-13T11:07:49;103012.94;;;7.75;100.00
13732;BME280;6937;56.096;12.664;2023-02-13T11:10:20;103005.00;;;7.73;100.00
13732;BME280;6937;56.096;12.664;2023-02-13T11:12:46;103016.41;;;7.78;100.00
13732;BME280;6937;56.096;12.664;2023-02-13T11:15:28;102992.47;;;7.78;100.00
13732;BME280;6937;56.096;12.664;2023-02-13T11:17:56;103004.78;;;7.83;100.00
13732;BME280;6937;56.096;12.664;2023-02-13T11:20:38;102995.75;;;7.88;100.00
13732;BME280;6937;56.096;12.664;2023-02-13T11:23:32;102984.00;;;7.97;100.00
13732;BME280;6937;56.096;12.664;2023-02-13T11:26:02;102993.59;;;8.02;100.00
13732;BME280;6937;56.096;12.664;2023-02-13T11:28:30;102967.59;;;8.12;100.00
13732;BME280;6937;56.096;12.664;2023-02-13T11:33:48;102977.97;;;8.22;100.00
13732;BME280;6937;56.096;12.664;2023-02-13T11:39:04;102964.56;;;8.25;100.00
13732;BME280;6937;56.096;12.664;2023-02-13T11:41:39;102959.13;;;8.30;100.00
13732;BME280;6937;56.096;12.664;2023-02-13T11:44:21;102975.75;;;8.40;100.00
13732;BME280;6937;56.096;12.664;2023-02-13T11:46:50;102981.78;;;8.46;100.00
13732;BME280;6937;56.096;12.664;2023-02-13T11:49:19;102975.28;;;8.55;100.00
13732;BME280;6937;56.096;12.664;2023-02-13T11:51:51;102974.38;;;8.56;100.00
13732;BME280;6937;56.096;12.664;2023-02-13T11:56:52;102981.56;;;8.54;100.00
13732;BME280;6937;56.096;12.664;2023-02-13T11:59:21;102979.00;;;8.51;100.00
13732;BME280;6937;56.096;12.664;2023-02-13T12:02:01;102985.84;;;8.59;100.00
13732;BME280;6937;56.096;12.664;2023-02-13T12:04:27;103003.41;;;8.66;100.00
13732;BME280;6937;56.096;12.664;2023-02-13T12:07:01;102976.63;;;8.71;100.00
13732;BME280;6937;56.096;12.664;2023-02-13T12:09:29;102998.84;;;8.70;100.00
13732;BME280;6937;56.096;12.664;2023-02-13T12:12:00;102988.97;;;8.73;100.00
13732;BME280;6937;56.096;12.664;2023-02-13T12:14:36;102987.06;;;8.79;100.00
13732;BME280;6937;56.096;12.664;2023-02-13T12:17:08;102982.59;;;8.79;100.00
13732;BME280;6937;56.096;12.664;2023-02-13T12:25:17;102985.00;;;8.88;100.00
13732;BME280;6937;56.096;12.664;2023-02-13T12:35:54;102981.34;;;8.92;100.00
13732;BME280;6937;56.096;12.664;2023-02-13T12:38:46;102997.16;;;8.97;100.00
13732;BME280;6937;56.096;12.664;2023-02-13T12:41:21;102982.88;;;8.99;100.00
13732;BME280;6937;56.096;12.664;2023-02-13T12:52:21;102993.59;;;8.98;100.00
13732;BME280;6937;56.096;12.664;2023-02-13T13:02:57;102986.53;;;9.25;100.00
13732;BME280;6937;56.096;12.664;2023-02-13T13:13:51;102971.06;;;9.36;100.00
13732;BME280;6937;56.096;12.664;2023-02-13T13:19:09;102962.66;;;9.48;100.00
13732;BME280;6937;56.096;12.664;2023-02-13T13:21:47;102961.72;;;9.49;100.00
13732;BME280;6937;56.096;12.664;2023-02-13T13:24:32;102982.66;;;9.62;100.00
13732;BME280;6937;56.096;12.664;2023-02-13T13:27:02;102969.72;;;9.75;100.00
13732;BME280;6937;56.096;12.664;2023-02-13T13:29:41;102956.28;;;10.04;100.00
13732;BME280;6937;56.096;12.664;2023-02-13T13:32:15;102959.72;;;10.33;100.00
13732;BME280;6937;56.096;12.664;2023-02-13T13:34:42;102943.59;;;10.82;100.00
13732;BME280;6937;56.096;12.664;2023-02-13T13:37:21;102912.91;;;11.78;100.00
13732;BME280;6937;56.096;12.664;2023-02-13T13:50:55;102892.81;;;13.39;100.00
13732;BME280;6937;56.096;12.664;2023-02-13T13:53:21;102898.59;;;13.48;100.00
13732;BME280;6937;56.096;12.664;2023-02-13T13:58:38;102837.19;;;13.24;100.00
13732;BME280;6937;56.096;12.664;2023-02-13T14:01:23;102844.63;;;13.36;100.00
13732;BME280;6937;56.096;12.664;2023-02-13T14:03:51;102865.50;;;13.31;100.00
13732;BME280;6937;56.096;12.664;2023-02-13T14:06:20;102862.94;;;13.28;100.00
13732;BME280;6937;56.096;12.664;2023-02-13T14:13:56;102894.19;;;13.12;100.00
13732;BME280;6937;56.096;12.664;2023-02-13T14:16:40;102899.03;;;13.03;100.00
13732;BME280;6937;56.096;12.664;2023-02-13T14:19:23;102906.38;;;13.00;100.00
13732;BME280;6937;56.096;12.664;2023-02-13T14:21:50;102915.56;;;12.94;100.00
13732;BME280;6937;56.096;12.664;2023-02-13T14:24:17;102923.78;;;12.91;100.00
13732;BME280;6937;56.096;12.664;2023-02-13T14:26:51;102915.38;;;12.80;100.00
13732;BME280;6937;56.096;12.664;2023-02-13T14:29:23;102922.75;;;12.75;100.00
13732;BME280;6937;56.096;12.664;2023-02-13T14:32:03;102924.78;;;12.51;100.00
13732;BME280;6937;56.096;12.664;2023-02-13T14:34:32;102932.50;;;12.39;100.00
13732;BME280;6937;56.096;12.664;2023-02-13T14:37:06;102948.06;;;12.31;100.00
13732;BME280;6937;56.096;12.664;2023-02-13T14:42:36;102957.06;;;12.09;100.00
13732;BME280;6937;56.096;12.664;2023-02-13T14:45:11;102972.22;;;11.90;100.00
13732;BME280;6937;56.096;12.664;2023-02-13T14:47:44;102989.09;;;11.71;100.00
13732;BME280;6937;56.096;12.664;2023-02-13T14:50:20;102984.88;;;11.65;100.00
13732;BME280;6937;56.096;12.664;2023-02-13T14:52:46;102982.41;;;11.59;100.00
13732;BME280;6937;56.096;12.664;2023-02-13T14:55:16;102988.41;;;11.44;100.00
13732;BME280;6937;56.096;12.664;2023-02-13T14:57:49;102981.31;;;11.43;100.00
13732;BME280;6937;56.096;12.664;2023-02-13T15:00:23;102988.69;;;11.14;100.00
13732;BME280;6937;56.096;12.664;2023-02-13T15:02:58;102993.88;;;10.96;100.00
13732;BME280;6937;56.096;12.664;2023-02-13T15:05:31;103004.78;;;10.68;100.00
13732;BME280;6937;56.096;12.664;2023-02-13T15:08:14;103020.28;;;10.58;100.00
13732;BME280;6937;56.096;12.664;2023-02-13T15:10:52;103013.38;;;10.53;100.00